Time;durP1;ratioP1;P1;durP2;ratioP2;P2;SDS_P1;SDS_P2;PMS_P1;PMS_P2;Temp;Humidity;BMP_temperature;BMP_pressure;BME280_temperature;BME280_humidity;BME280_pressure;Samples;Min_cycle;Max_cycle;Signal;HPM_P1;HPM_P2
2022/09/13 00:01:20;;;;;;;3.55;1.92;;;12.90;99.90;;;;;;6226517;23;20035;-85
2022/09/13 00:04:08;;;;;;;3.30;2.17;;;12.90;1.00;;;;;;6244381;23;20031;-85
2022/09/13 00:06:57;;;;;;;2.80;2.00;;;12.80;1.00;;;;;;6246118;23;20038;-86
2022/09/13 00:09:44;;;;;;;3.45;2.20;;;12.70;1.00;;;;;;6244181;23;20517;-85
2022/09/13 00:12:31;;;;;;;4.25;2.00;;;12.60;1.00;;;;;;6224383;23;20087;-85
2022/09/13 00:15:19;;;;;;;5.78;2.40;;;12.60;1.00;;;;;;6247323;22;20020;-86
2022/09/13 00:18:06;;;;;;;4.60;2.30;;;12.50;1.00;;;;;;6224891;23;20046;-85
2022/09/13 00:21:03;;;;;;;4.05;2.40;;;12.40;1.00;;;;;;6247551;23;20020;-85
2022/09/13 00:23:58;;;;;;;3.78;2.40;;;12.40;1.00;;;;;;6248353;22;20039;-85
2022/09/13 00:26:46;;;;;;;5.07;2.47;;;12.40;1.50;;;;;;6247294;23;20024;-85
2022/09/13 00:29:33;;;;;;;3.25;2.42;;;12.30;33.30;;;;;;6245749;23;20020;-85
2022/09/13 00:32:23;;;;;;;5.28;2.70;;;12.20;66.70;;;;;;6250000;22;20038;-84
2022/09/13 00:35:13;;;;;;;9.60;3.08;;;12.20;92.40;;;;;;6228069;23;20118;-85
2022/09/13 00:38:03;;;;;;;3.20;2.33;;;12.20;99.90;;;;;;6247640;23;20026;-85
2022/09/13 00:40:50;;;;;;;4.32;2.55;;;12.20;99.90;;;;;;6250141;22;20028;-85
2022/09/13 00:43:47;;;;;;;3.92;2.78;;;12.20;99.90;;;;;;6228044;23;20034;-84
2022/09/13 00:46:43;;;;;;;3.90;2.65;;;12.10;99.90;;;;;;6248975;23;20082;-85
2022/09/13 00:49:40;;;;;;;2.90;2.65;;;12.10;99.90;;;;;;6247433;23;20031;-84
2022/09/13 00:52:29;;;;;;;5.05;3.13;;;12.00;99.90;;;;;;6238521;23;20028;-84
2022/09/13 00:55:49;;;;;;;3.78;3.05;;;11.90;99.90;;;;;;6248033;23;20545;-85
2022/09/13 00:58:45;;;;;;;4.38;3.15;;;12.10;99.90;;;;;;6241398;23;20034;-85
2022/09/13 01:01:39;;;;;;;6.30;3.40;;;12.20;99.90;;;;;;6238547;23;20025;-84
2022/09/13 01:04:29;;;;;;;5.85;3.20;;;12.30;99.90;;;;;;6247572;23;20035;-84
2022/09/13 01:07:19;;;;;;;4.85;3.00;;;12.40;99.90;;;;;;6244755;22;20100;-84
2022/09/13 01:10:07;;;;;;;6.40;3.05;;;12.40;99.90;;;;;;6225504;23;20032;-85
2022/09/13 01:13:09;;;;;;;12.13;3.28;;;12.40;99.90;;;;;;6247343;23;20103;-85
2022/09/13 01:15:58;;;;;;;5.97;2.78;;;12.30;99.90;;;;;;6247032;23;20020;-85
2022/09/13 01:18:45;;;;;;;5.65;2.95;;;12.20;99.90;;;;;;6247939;23;20054;-85
2022/09/13 01:21:41;;;;;;;4.38;2.85;;;12.00;99.90;;;;;;6246875;23;20031;-84
2022/09/13 01:24:58;;;;;;;4.10;2.90;;;11.90;99.90;;;;;;6246819;23;20020;-85
2022/09/13 01:28:36;;;;;;;3.78;2.70;;;11.80;99.90;;;;;;6248028;23;20052;-85
2022/09/13 01:31:45;;;;;;;4.45;2.70;;;11.60;99.90;;;;;;6215582;23;20019;-85
2022/09/13 01:34:35;;;;;;;6.50;3.00;;;11.60;99.90;;;;;;6248713;23;20466;-85
2022/09/13 01:37:32;;;;;;;3.70;3.35;;;11.60;99.90;;;;;;6246466;23;20024;-86
2022/09/13 01:40:22;;;;;;;4.28;3.30;;;11.60;99.90;;;;;;6249825;22;20028;-86
2022/09/13 01:43:37;;;;;;;5.03;3.78;;;11.60;99.90;;;;;;6247006;23;20024;-83
2022/09/13 01:46:31;;;;;;;5.28;3.63;;;11.60;1.00;;;;;;6247375;23;20446;-84
2022/09/13 01:49:29;;;;;;;7.85;4.10;;;11.60;1.00;;;;;;6248762;23;20024;-85
2022/09/13 01:52:44;;;;;;;8.40;4.15;;;11.80;3.90;;;;;;6249257;23;20038;-83
2022/09/13 01:55:41;;;;;;;7.10;4.20;;;12.10;85.90;;;;;;6246844;23;20480;-86
2022/09/13 01:58:31;;;;;;;7.75;3.17;;;12.40;1.00;;;;;;6248158;23;20031;-86
2022/09/13 02:01:23;;;;;;;4.38;3.13;;;12.80;99.90;;;;;;6246345;23;20031;-86
2022/09/13 02:04:24;;;;;;;5.45;2.75;;;13.00;99.90;;;;;;6224592;23;20024;-87
2022/09/13 02:07:40;;;;;;;4.05;2.90;;;13.00;99.90;;;;;;6246635;23;20122;-84
2022/09/13 02:10:45;;;;;;;4.00;2.97;;;13.00;99.90;;;;;;6244434;23;20028;-85
2022/09/13 02:13:39;;;;;;;6.38;3.20;;;13.10;53.20;;;;;;6252878;23;20020;-86
2022/09/13 02:16:46;;;;;;;4.35;2.75;;;13.10;14.70;;;;;;6264240;23;20051;-85
2022/09/13 02:19:41;;;;;;;14.13;7.78;;;13.20;1.00;;;;;;6261677;23;20072;-85
2022/09/13 02:22:35;;;;;;;4.07;3.20;;;13.20;1.00;;;;;;6263205;23;20271;-84
2022/09/13 02:25:25;;;;;;;6.07;3.05;;;13.20;1.00;;;;;;6264116;22;20020;-85
2022/09/13 02:28:22;;;;;;;3.50;3.20;;;13.20;1.00;;;;;;6262854;23;20055;-85
2022/09/13 02:31:11;;;;;;;3.40;2.88;;;13.50;1.00;;;;;;6263725;23;20111;-85
2022/09/13 02:34:39;;;;;;;4.85;2.58;;;13.60;1.00;;;;;;6242276;23;20384;-84
2022/09/13 02:37:31;;;;;;;5.13;3.05;;;13.70;1.00;;;;;;6273145;22;20012;-83
2022/09/13 02:40:23;;;;;;;3.67;2.75;;;13.70;1.00;;;;;;6272369;22;20031;-84
2022/09/13 02:43:18;;;;;;;12.25;3.40;;;13.50;1.00;;;;;;6271417;22;20016;-84
2022/09/13 02:46:13;;;;;;;3.53;2.72;;;13.40;1.00;;;;;;6271137;22;20008;-84
2022/09/13 02:49:09;;;;;;;5.25;2.40;;;13.40;1.00;;;;;;6266279;23;20048;-85
2022/09/13 02:52:21;;;;;;;4.00;2.72;;;13.30;1.00;;;;;;6253816;23;20081;-85
2022/09/13 02:55:11;;;;;;;6.03;2.90;;;13.00;1.00;;;;;;6232968;23;20107;-84
2022/09/13 02:58:22;;;;;;;5.85;2.90;;;13.00;1.00;;;;;;6251209;23;20024;-85
2022/09/13 03:01:14;;;;;;;6.03;3.10;;;12.90;1.00;;;;;;6252171;23;20020;-84
2022/09/13 03:04:02;;;;;;;4.65;3.25;;;12.90;1.00;;;;;;6246475;23;20329;-85
2022/09/13 03:06:50;;;;;;;5.22;3.13;;;12.80;1.00;;;;;;6229850;23;20067;-85
2022/09/13 03:10:05;;;;;;;3.90;3.25;;;12.70;1.00;;;;;;6247341;23;20035;-85
2022/09/13 03:13:17;;;;;;;4.20;2.78;;;12.60;1.00;;;;;;6246980;23;20028;-86
2022/09/13 03:16:26;;;;;;;4.60;3.10;;;12.50;4.40;;;;;;6247898;23;20048;-86
2022/09/13 03:19:35;;;;;;;5.60;3.35;;;12.40;46.90;;;;;;6244099;23;20420;-86
2022/09/13 03:22:40;;;;;;;3.97;3.58;;;12.30;86.90;;;;;;6224279;23;20035;-86
2022/09/13 03:25:38;;;;;;;7.35;3.67;;;12.20;99.90;;;;;;6248279;23;20349;-85
2022/09/13 03:29:00;;;;;;;5.80;3.53;;;12.10;99.90;;;;;;6244668;23;20048;-86
2022/09/13 03:32:18;;;;;;;5.88;3.58;;;11.80;99.90;;;;;;6247963;22;20442;-86
2022/09/13 03:35:24;;;;;;;4.38;3.65;;;11.70;99.90;;;;;;6225119;23;20035;-85
2022/09/13 03:38:14;;;;;;;5.97;4.18;;;11.60;99.90;;;;;;6245254;23;20046;-86
2022/09/13 03:41:11;;;;;;;8.57;5.28;;;11.60;99.90;;;;;;6224956;23;20103;-85
2022/09/13 03:44:12;;;;;;;6.80;4.88;;;11.40;1.00;;;;;;6245461;23;20028;-85
2022/09/13 03:47:02;;;;;;;7.32;4.90;;;11.50;1.00;;;;;;6247716;23;20029;-85
2022/09/13 03:49:51;;;;;;;8.80;4.90;;;11.50;59.50;;;;;;6246191;23;20052;-85
2022/09/13 03:52:38;;;;;;;6.55;4.43;;;11.60;99.90;;;;;;6223300;23;20119;-85
2022/09/13 03:55:37;;;;;;;6.55;4.15;;;11.60;99.90;;;;;;6249237;23;20356;-85
2022/09/13 03:58:27;;;;;;;8.82;3.97;;;11.60;99.90;;;;;;6245378;23;20446;-85
2022/09/13 04:01:23;;;;;;;7.53;5.07;;;11.40;99.90;;;;;;6227755;23;20020;-85
2022/09/13 04:04:10;;;;;;;8.35;4.38;;;11.30;99.90;;;;;;6247908;23;20028;-86
2022/09/13 04:07:02;;;;;;;7.93;5.40;;;11.20;99.90;;;;;;6247473;23;20086;-86
2022/09/13 04:09:52;;;;;;;6.95;5.00;;;11.30;99.90;;;;;;6250125;22;20024;-85
2022/09/13 04:12:43;;;;;;;7.10;4.78;;;11.40;1.00;;;;;;6247233;23;20039;-85
2022/09/13 04:15:33;;;;;;;7.03;4.70;;;11.40;1.00;;;;;;6226655;23;20044;-85
2022/09/13 04:18:21;;;;;;;5.93;4.82;;;11.30;1.00;;;;;;6247926;23;20095;-85
2022/09/13 04:21:08;;;;;;;10.02;5.55;;;11.20;1.00;;;;;;6227219;23;20024;-85
2022/09/13 04:23:55;;;;;;;12.05;5.55;;;11.20;1.00;;;;;;6245248;23;20024;-85
2022/09/13 04:26:53;;;;;;;7.68;5.72;;;11.20;1.00;;;;;;6247466;23;20024;-85
2022/09/13 04:29:43;;;;;;;7.43;6.32;;;11.20;9.20;;;;;;6248340;23;20035;-85
2022/09/13 04:32:32;;;;;;;9.85;6.28;;;11.30;99.90;;;;;;6249170;23;20420;-85
2022/09/13 04:35:19;;;;;;;9.93;5.95;;;11.40;99.90;;;;;;6223784;23;20047;-83
2022/09/13 04:38:07;;;;;;;7.40;5.50;;;11.70;1.00;;;;;;6248454;23;20419;-82
2022/09/13 04:40:56;;;;;;;10.25;5.10;;;11.90;99.90;;;;;;6246437;23;20024;-83
2022/09/13 04:43:43;;;;;;;8.05;4.70;;;12.20;1.00;;;;;;6245700;23;20091;-83
2022/09/13 04:46:30;;;;;;;6.63;3.78;;;12.50;99.90;;;;;;6246557;23;20107;-82
2022/09/13 04:49:20;;;;;;;7.13;3.75;;;12.80;30.80;;;;;;6246833;23;20155;-82
2022/09/13 04:52:07;;;;;;;12.93;4.57;;;12.90;1.00;;;;;;6246773;23;20504;-82
2022/09/13 04:54:57;;;;;;;5.28;3.60;;;13.00;99.90;;;;;;6247288;23;20055;-82
2022/09/13 04:57:44;;;;;;;4.85;3.33;;;13.10;99.90;;;;;;6246048;23;20106;-82
2022/09/13 05:00:32;;;;;;;6.85;3.55;;;13.10;99.90;;;;;;6247069;23;20024;-81
2022/09/13 05:03:19;;;;;;;6.25;3.10;;;13.20;99.90;;;;;;6248260;23;20076;-83
2022/09/13 05:06:12;;;;;;;5.03;3.58;;;13.30;55.70;;;;;;6235372;23;20032;-82
2022/09/13 05:09:02;;;;;;;5.85;3.42;;;13.30;9.30;;;;;;6245444;23;20024;-83
2022/09/13 05:11:50;;;;;;;4.78;3.35;;;13.20;1.00;;;;;;6246079;23;20078;-83
2022/09/13 05:14:39;;;;;;;7.65;3.53;;;13.10;1.00;;;;;;6246784;23;20422;-84
2022/09/13 05:17:29;;;;;;;5.68;3.67;;;13.10;1.00;;;;;;6227293;23;20056;-84
2022/09/13 05:20:16;;;;;;;5.20;3.22;;;13.00;1.00;;;;;;6248491;23;20486;-85
2022/09/13 05:23:06;;;;;;;5.50;3.28;;;12.90;1.00;;;;;;6246395;23;20025;-85
2022/09/13 05:25:58;;;;;;;5.45;3.53;;;12.90;4.20;;;;;;6246132;23;20050;-85
2022/09/13 05:28:47;;;;;;;10.65;3.58;;;12.90;10.20;;;;;;6248301;23;20099;-85
2022/09/13 05:31:37;;;;;;;6.25;3.67;;;12.90;12.50;;;;;;6244317;23;20024;-85
2022/09/13 05:34:24;;;;;;;6.05;4.47;;;12.80;15.80;;;;;;6224397;23;20035;-85
2022/09/13 05:37:16;;;;;;;7.72;3.80;;;12.70;17.90;;;;;;6245199;23;20323;-84
2022/09/13 05:40:04;;;;;;;7.18;3.63;;;12.70;22.30;;;;;;6242227;23;20282;-85
2022/09/13 05:42:58;;;;;;;11.88;3.55;;;12.70;38.70;;;;;;6244811;23;20511;-83
2022/09/13 05:45:45;;;;;;;10.20;3.90;;;12.80;57.50;;;;;;6246079;23;20048;-85
2022/09/13 05:48:34;;;;;;;5.32;3.67;;;12.90;58.90;;;;;;6245465;23;20027;-87
2022/09/13 05:51:21;;;;;;;6.03;3.17;;;13.00;51.50;;;;;;6244998;23;20126;-86
2022/09/13 05:54:11;;;;;;;4.18;2.55;;;13.20;21.60;;;;;;6225353;23;20140;-85
2022/09/13 05:56:58;;;;;;;4.90;2.92;;;13.30;1.00;;;;;;6246478;23;20102;-86
2022/09/13 05:59:46;;;;;;;3.65;3.10;;;13.50;1.00;;;;;;6242955;23;20479;-85
2022/09/13 06:02:34;;;;;;;5.78;3.35;;;13.60;1.00;;;;;;6223253;23;20020;-85
2022/09/13 06:05:21;;;;;;;5.88;3.53;;;13.70;1.00;;;;;;6245533;23;20024;-84
2022/09/13 06:08:10;;;;;;;3.78;3.08;;;13.80;1.00;;;;;;6225261;23;20098;-84
2022/09/13 06:11:00;;;;;;;9.15;2.92;;;13.90;1.00;;;;;;6245285;23;20135;-82
2022/09/13 06:13:47;;;;;;;5.15;3.22;;;14.10;1.00;;;;;;6248170;22;20107;-83
2022/09/13 06:16:35;;;;;;;7.00;3.97;;;14.20;99.90;;;;;;6243836;23;20495;-84
2022/09/13 06:19:23;;;;;;;8.65;4.35;;;14.30;99.90;;;;;;6242455;23;20024;-83
2022/09/13 06:22:10;;;;;;;4.43;3.28;;;14.40;99.90;;;;;;6245106;23;20059;-84
2022/09/13 06:24:57;;;;;;;4.03;2.42;;;14.50;99.90;;;;;;6245978;23;20035;-83
2022/09/13 06:27:45;;;;;;;4.45;2.22;;;14.50;99.90;;;;;;6226810;23;20078;-82
2022/09/13 06:30:32;;;;;;;5.78;2.38;;;14.50;99.90;;;;;;6246178;23;20107;-82
2022/09/13 06:33:19;;;;;;;5.28;2.80;;;14.50;99.90;;;;;;6244518;23;20035;-83
2022/09/13 06:36:10;;;;;;;11.68;2.90;;;14.60;99.90;;;;;;6245549;23;20128;-82
2022/09/13 06:39:04;;;;;;;;;;;14.50;99.90;;;;;;6225961;23;20031;-88
2022/09/13 06:41:51;;;;;;;3.58;2.40;;;14.60;99.90;;;;;;6224897;23;19919;-85
2022/09/13 06:44:38;;;;;;;3.25;2.30;;;14.70;99.90;;;;;;6247214;23;20304;-84
2022/09/13 06:47:25;;;;;;;5.60;2.17;;;15.00;99.90;;;;;;6221693;23;20028;-84
2022/09/13 06:50:17;;;;;;;6.00;2.60;;;15.10;99.90;;;;;;6247331;23;20032;-85
2022/09/13 06:53:04;;;;;;;4.13;2.40;;;15.10;99.90;;;;;;6224644;23;20032;-85
2022/09/13 06:56:00;;;;;;;7.43;2.40;;;15.10;99.90;;;;;;6245587;23;20099;-87
2022/09/13 06:58:49;;;;;;;5.55;2.47;;;15.10;99.90;;;;;;6246425;23;20020;-86
2022/09/13 07:01:39;;;;;;;3.40;2.63;;;15.20;99.90;;;;;;6244648;23;20024;-85
2022/09/13 07:04:30;;;;;;;7.22;2.47;;;15.30;99.90;;;;;;6228445;23;20327;-84
2022/09/13 07:07:18;;;;;;;6.28;2.65;;;15.40;99.90;;;;;;6248723;23;20312;-85
2022/09/13 07:10:06;;;;;;;5.45;2.42;;;15.60;99.90;;;;;;6229975;23;20107;-85
2022/09/13 07:12:53;;;;;;;4.55;2.35;;;15.70;99.90;;;;;;6231002;22;20396;-87
2022/09/13 07:15:43;;;;;;;3.50;2.33;;;15.90;99.90;;;;;;6227990;23;20059;-87
2022/09/13 07:18:32;;;;;;;4.18;2.42;;;16.20;99.90;;;;;;6245694;23;20331;-84
2022/09/13 07:21:21;;;;;;;9.23;3.13;;;16.50;99.90;;;;;;6226658;23;20099;-83
2022/09/13 07:24:12;;;;;;;10.23;2.65;;;16.80;99.90;;;;;;6246637;23;20020;-82
2022/09/13 07:27:00;;;;;;;5.75;2.25;;;17.30;99.90;;;;;;6245281;23;20024;-83
2022/09/13 07:29:48;;;;;;;16.73;3.90;;;17.60;99.90;;;;;;6225540;23;20420;-83
2022/09/13 07:32:45;;;;;;;6.10;2.60;;;17.80;99.90;;;;;;6246682;23;20023;-83
2022/09/13 07:35:32;;;;;;;8.07;2.30;;;18.00;99.90;;;;;;6246280;23;20036;-83
2022/09/13 07:38:20;;;;;;;2.78;1.80;;;18.10;99.90;;;;;;6246467;23;20523;-85
2022/09/13 07:41:11;;;;;;;2.17;1.80;;;18.20;99.90;;;;;;6248412;23;20020;-84
2022/09/13 07:44:00;;;;;;;3.78;2.03;;;18.40;99.90;;;;;;6240421;23;20067;-83
2022/09/13 07:46:55;;;;;;;3.13;1.95;;;18.90;99.90;;;;;;6225458;23;20447;-84
2022/09/13 07:49:42;;;;;;;2.30;1.70;;;19.30;99.90;;;;;;6247408;23;20027;-86
2022/09/13 07:52:29;;;;;;;3.47;1.73;;;19.70;99.90;;;;;;6248555;23;20035;-85
2022/09/13 07:55:19;;;;;;;8.95;1.70;;;20.00;72.70;;;;;;6244910;23;20034;-85
2022/09/13 07:58:06;;;;;;;2.53;1.35;;;20.30;60.10;;;;;;6248486;23;20111;-84
2022/09/13 08:00:54;;;;;;;4.57;1.40;;;20.70;48.90;;;;;;6245061;23;20024;-85
2022/09/13 08:03:53;;;;;;;4.32;1.48;;;21.20;39.30;;;;;;6225931;23;20023;-84
2022/09/13 08:06:42;;;;;;;3.28;1.23;;;21.90;39.30;;;;;;6226561;23;20051;-85
2022/09/13 08:09:29;;;;;;;2.80;1.50;;;22.80;18.50;;;;;;6246464;23;20028;-83
2022/09/13 08:12:16;;;;;;;3.75;1.45;;;24.20;1.60;;;;;;6226527;23;20024;-84
2022/09/13 08:15:05;;;;;;;2.55;0.95;;;25.50;1.00;;;;;;6245689;23;20416;-84
2022/09/13 08:17:54;;;;;;;1.85;1.13;;;26.40;1.00;;;;;;6223771;23;20020;-86
2022/09/13 08:20:42;;;;;;;1.58;0.95;;;26.60;1.00;;;;;;6246179;23;20107;-86
2022/09/13 08:23:30;;;;;;;3.60;1.50;;;26.90;1.00;;;;;;6246105;23;20025;-86
2022/09/13 08:26:19;;;;;;;2.38;1.20;;;27.60;1.00;;;;;;6248042;23;20020;-85
2022/09/13 08:29:10;;;;;;;3.55;1.48;;;27.20;1.00;;;;;;6246465;23;20050;-85
2022/09/13 08:31:58;;;;;;;4.38;1.13;;;27.50;1.00;;;;;;6226926;23;20451;-85
2022/09/13 08:34:46;;;;;;;3.10;1.30;;;27.50;1.00;;;;;;6245900;23;20406;-86
2022/09/13 08:37:35;;;;;;;2.90;1.35;;;27.90;1.00;;;;;;6247982;23;20094;-84
2022/09/13 08:40:27;;;;;;;4.60;1.02;;;28.40;1.00;;;;;;6244715;23;20391;-83
2022/09/13 08:43:24;;;;;;;2.72;1.45;;;28.20;1.00;;;;;;6247972;23;20429;-86
2022/09/13 08:46:31;;;;;;;1.17;0.90;;;28.90;1.00;;;;;;6244558;23;20024;-87
2022/09/13 08:49:26;;;;;;;6.82;2.65;;;29.20;1.00;;;;;;6226818;23;20082;-87
2022/09/13 08:52:31;;;;;;;0.80;0.80;;;29.10;1.00;;;;;;6246965;23;20051;-87
2022/09/13 08:55:38;;;;;;;4.88;0.90;;;29.20;1.00;;;;;;6246647;23;20035;-86
2022/09/13 08:58:37;;;;;;;3.20;0.82;;;29.60;1.00;;;;;;6220619;23;20407;-86
2022/09/13 09:01:58;;;;;;;3.08;0.80;;;29.80;1.00;;;;;;6246075;23;20330;-83
2022/09/13 09:05:00;;;;;;;2.00;0.82;;;29.10;1.00;;;;;;6219386;23;20020;-83
2022/09/13 09:07:52;;;;;;;2.65;1.00;;;28.00;1.00;;;;;;6246798;23;20024;-83
2022/09/13 09:10:49;;;;;;;1.27;0.85;;;27.50;1.00;;;;;;6224776;23;20028;-85
2022/09/13 09:13:48;;;;;;;1.42;0.95;;;28.10;1.00;;;;;;6247812;23;20052;-86
2022/09/13 09:16:52;;;;;;;1.55;0.65;;;28.50;1.00;;;;;;6225176;23;20107;-83
2022/09/13 09:19:44;;;;;;;2.00;0.70;;;29.50;1.00;;;;;;6243895;23;20024;-84
2022/09/13 09:22:33;;;;;;;;;;;29.60;1.00;;;;;;6226747;23;20021;-85
2022/09/13 09:25:27;;;;;;;0.65;0.30;;;29.40;1.00;;;;;;6248283;22;19970;-83
2022/09/13 09:28:18;;;;;;;0.98;0.40;;;29.60;1.00;;;;;;6244512;23;20300;-84
2022/09/13 09:31:35;;;;;;;2.28;0.60;;;30.60;1.00;;;;;;6246884;23;20024;-83
2022/09/13 09:34:31;;;;;;;0.75;0.45;;;31.20;1.00;;;;;;6244201;23;20028;-83
2022/09/13 09:37:20;;;;;;;0.55;0.45;;;31.70;1.00;;;;;;6244650;23;20158;-82
2022/09/13 09:40:12;;;;;;;2.20;0.82;;;31.20;1.00;;;;;;6245304;23;20052;-82
2022/09/13 09:43:00;;;;;;;;;;;30.10;1.00;;;;;;6224923;23;20020;-83
2022/09/13 09:45:52;;;;;;;1.60;0.70;;;30.10;1.00;;;;;;6224508;23;19916;-82
2022/09/13 09:48:55;;;;;;;0.80;0.50;;;29.70;1.00;;;;;;6223897;23;20028;-84
2022/09/13 09:51:44;;;;;;;3.35;0.43;;;29.30;1.00;;;;;;6247240;23;20038;-83
2022/09/13 09:54:35;;;;;;;0.70;0.52;;;29.00;1.00;;;;;;6245304;23;20028;-85
2022/09/13 09:58:10;;;;;;;1.83;0.50;;;28.90;1.00;;;;;;6241232;23;20094;-83
2022/09/13 10:00:58;;;;;;;1.63;0.68;;;29.20;1.00;;;;;;6220509;23;20024;-84
2022/09/13 10:03:51;;;;;;;3.30;0.60;;;30.20;1.00;;;;;;6224411;23;20016;-85
2022/09/13 10:06:42;;;;;;;1.35;0.57;;;31.60;1.00;;;;;;6246548;23;20118;-85
2022/09/13 10:09:29;;;;;;;1.52;0.40;;;32.50;1.00;;;;;;6246082;23;20075;-85
2022/09/13 10:12:26;;;;;;;0.93;0.40;;;33.40;1.00;;;;;;6245929;23;20103;-86
2022/09/13 10:15:14;;;;;;;0.47;0.28;;;32.60;1.00;;;;;;6246467;23;20032;-85
2022/09/13 10:18:16;;;;;;;0.52;0.40;;;31.60;1.00;;;;;;6245938;23;20049;-85
2022/09/13 10:21:25;;;;;;;1.40;0.50;;;31.60;1.00;;;;;;6245437;23;20024;-85
2022/09/13 10:24:20;;;;;;;2.35;0.60;;;31.40;1.00;;;;;;6244662;23;20027;-85
2022/09/13 10:27:41;;;;;;;0.60;0.40;;;31.60;1.00;;;;;;6246099;23;20450;-85
2022/09/13 10:30:55;;;;;;;0.77;0.40;;;32.10;1.00;;;;;;6140513;23;20103;-85
2022/09/13 10:34:21;;;;;;;0.75;0.40;;;32.70;1.00;;;;;;6247015;23;20414;-86
2022/09/13 10:37:20;;;;;;;0.90;0.43;;;33.20;1.00;;;;;;6245638;23;20032;-86
2022/09/13 10:40:38;;;;;;;2.15;0.50;;;33.50;1.00;;;;;;6246613;23;20016;-84
2022/09/13 10:43:28;;;;;;;1.08;0.30;;;33.00;1.00;;;;;;6246376;23;20019;-85
2022/09/13 10:46:22;;;;;;;2.55;0.60;;;33.20;1.00;;;;;;6242527;23;20265;-86
2022/09/13 10:49:44;;;;;;;1.70;0.40;;;34.20;1.00;;;;;;6245171;23;20052;-84
2022/09/13 10:52:31;;;;;;;;;;;34.80;1.00;;;;;;6246447;23;20308;-84
2022/09/13 10:55:21;;;;;;;1.65;0.40;;;35.40;1.00;;;;;;6245972;23;19919;-85
2022/09/13 10:58:08;;;;;;;1.55;0.50;;;33.40;1.00;;;;;;6243073;23;20099;-83
2022/09/13 11:01:06;;;;;;;0.30;0.30;;;32.20;1.00;;;;;;6243951;23;20043;-86
2022/09/13 11:03:58;;;;;;;1.48;0.57;;;31.70;1.00;;;;;;6249428;22;20027;-85
2022/09/13 11:07:01;;;;;;;1.30;0.35;;;31.80;1.00;;;;;;6244586;23;20024;-84
2022/09/13 11:09:51;;;;;;;2.10;0.50;;;31.70;1.00;;;;;;6245805;23;20166;-85
2022/09/13 11:13:17;;;;;;;1.50;0.40;;;32.90;1.00;;;;;;6245204;23;20309;-84
2022/09/13 11:16:28;;;;;;;1.58;0.50;;;33.90;1.00;;;;;;6123907;23;20205;-84
2022/09/13 11:19:33;;;;;;;0.43;0.30;;;33.70;1.00;;;;;;6103798;23;20410;-83
2022/09/13 11:22:32;;;;;;;2.60;0.63;;;33.60;1.00;;;;;;6243886;23;20025;-83
2022/09/13 11:25:50;;;;;;;1.90;0.43;;;32.80;1.00;;;;;;6244062;23;20024;-82
2022/09/13 11:28:47;;;;;;;0.50;0.50;;;31.50;1.00;;;;;;6223904;23;20053;-83
2022/09/13 11:31:50;;;;;;;1.10;0.55;;;30.50;1.00;;;;;;6248066;22;20031;-84
2022/09/13 11:34:40;;;;;;;;;;;29.90;1.00;;;;;;6244319;23;20277;-81
2022/09/13 11:37:51;;;;;;;0.60;0.40;;;30.20;1.00;;;;;;6247752;22;19916;-81
2022/09/13 11:40:57;;;;;;;1.45;0.50;;;31.00;1.00;;;;;;6248355;22;20327;-83
2022/09/13 11:44:30;;;;;;;1.10;0.40;;;32.00;1.00;;;;;;6246717;23;20366;-82
2022/09/13 11:47:29;;;;;;;0.35;0.20;;;32.20;1.00;;;;;;6236532;23;20304;-82
2022/09/13 11:50:38;;;;;;;1.58;0.30;;;32.10;1.00;;;;;;6245045;23;20375;-83
2022/09/13 11:53:49;;;;;;;0.28;0.28;;;32.50;1.00;;;;;;6228504;23;20038;-84
2022/09/13 11:56:43;;;;;;;0.57;0.30;;;32.30;1.00;;;;;;6249946;23;20024;-83
2022/09/13 11:59:36;;;;;;;1.40;0.35;;;32.90;1.00;;;;;;6224878;23;20024;-84
2022/09/13 12:02:42;;;;;;;0.93;0.40;;;33.60;1.00;;;;;;6227498;23;20419;-85
2022/09/13 12:05:38;;;;;;;0.75;0.30;;;33.70;1.00;;;;;;6225802;23;20028;-84
2022/09/13 12:08:34;;;;;;;2.97;1.10;;;33.80;1.00;;;;;;6222981;23;20024;-83
2022/09/13 12:11:26;;;;;;;2.30;0.40;;;33.10;1.00;;;;;;6247551;23;20083;-84
2022/09/13 12:14:21;;;;;;;1.08;0.40;;;32.80;1.00;;;;;;6226499;23;20039;-83
2022/09/13 12:17:33;;;;;;;0.30;0.30;;;32.80;1.00;;;;;;6246886;23;20332;-84
2022/09/13 12:20:35;;;;;;;0.73;0.40;;;32.30;1.00;;;;;;6223349;23;20442;-83
2022/09/13 12:23:53;;;;;;;0.98;0.30;;;31.50;1.00;;;;;;6247254;23;20090;-83
2022/09/13 12:26:57;;;;;;;0.22;0.20;;;30.90;1.00;;;;;;6213120;23;20030;-83
2022/09/13 12:29:56;;;;;;;1.55;0.35;;;30.80;1.00;;;;;;6246919;23;20119;-84
2022/09/13 12:32:46;;;;;;;0.35;0.22;;;31.00;1.00;;;;;;6224914;23;20439;-81
2022/09/13 12:35:50;;;;;;;1.65;0.30;;;31.70;1.00;;;;;;6248899;23;20024;-83
2022/09/13 12:38:55;;;;;;;0.65;0.38;;;32.60;1.00;;;;;;6246877;23;20447;-84
2022/09/13 12:42:07;;;;;;;1.02;0.20;;;33.20;1.00;;;;;;6245733;23;20020;-83
2022/09/13 12:45:06;;;;;;;0.55;0.40;;;34.00;1.00;;;;;;6247374;23;20075;-82
2022/09/13 12:48:32;;;;;;;0.85;0.30;;;34.20;1.00;;;;;;6248204;22;20028;-84
2022/09/13 12:51:47;;;;;;;0.40;0.30;;;34.30;1.00;;;;;;6241600;23;20028;-82
2022/09/13 12:55:17;;;;;;;0.30;0.30;;;34.80;1.00;;;;;;6247109;23;20475;-84
2022/09/13 12:59:15;;;;;;;2.80;0.40;;;33.70;1.00;;;;;;6228521;23;20028;-84
2022/09/13 13:02:20;;;;;;;0.30;0.30;;;32.40;1.00;;;;;;6106908;23;20034;-84
2022/09/13 13:05:31;;;;;;;1.08;0.40;;;31.80;1.00;;;;;;6123944;23;20053;-83
2022/09/13 13:08:18;;;;;;;1.02;0.40;;;31.00;1.00;;;;;;6247636;23;20099;-82
2022/09/13 13:11:12;;;;;;;1.48;0.30;;;30.70;1.00;;;;;;6247177;23;20271;-83
2022/09/13 13:14:08;;;;;;;1.13;0.30;;;30.80;1.00;;;;;;6247736;22;20024;-83
2022/09/13 13:17:36;;;;;;;0.63;0.30;;;30.90;1.00;;;;;;6246486;23;20415;-82
2022/09/13 13:20:54;;;;;;;0.40;0.25;;;30.80;1.00;;;;;;6245589;23;20435;-83
2022/09/13 13:23:44;;;;;;;0.32;0.30;;;31.30;1.00;;;;;;6248067;23;20095;-83
2022/09/13 13:26:57;;;;;;;0.50;0.50;;;31.10;1.00;;;;;;6227349;23;20186;-82
2022/09/13 13:30:04;;;;;;;2.67;0.60;;;30.00;1.00;;;;;;6227196;23;20059;-81
2022/09/13 13:33:15;;;;;;;1.48;0.40;;;29.40;1.00;;;;;;6248689;23;20098;-82
2022/09/13 13:36:31;;;;;;;2.10;0.50;;;29.10;1.00;;;;;;6246808;23;20038;-85
2022/09/13 13:39:22;;;;;;;0.57;0.45;;;29.70;1.00;;;;;;6246852;23;20027;-83
2022/09/13 13:42:15;;;;;;;0.57;0.30;;;30.00;1.00;;;;;;6244574;23;20024;-82
2022/09/13 13:45:19;;;;;;;1.63;0.40;;;29.80;1.00;;;;;;6247739;23;20025;-85
2022/09/13 13:48:11;;;;;;;0.45;0.40;;;29.20;1.00;;;;;;6226060;23;20031;-83
2022/09/13 13:51:16;;;;;;;1.30;0.50;;;29.10;1.00;;;;;;6225908;23;20130;-80
2022/09/13 13:54:30;;;;;;;3.35;0.55;;;29.40;1.00;;;;;;6246041;23;20024;-82
2022/09/13 13:57:25;;;;;;;0.63;0.50;;;29.80;1.00;;;;;;6245040;23;20067;-81
2022/09/13 14:00:23;;;;;;;0.60;0.52;;;30.30;1.00;;;;;;6223062;23;20024;-82
2022/09/13 14:03:56;;;;;;;0.63;0.40;;;31.70;1.00;;;;;;6225157;23;20038;-84
2022/09/13 14:06:46;;;;;;;2.88;0.30;;;34.00;1.00;;;;;;6243740;23;20345;-83
2022/09/13 14:09:56;;;;;;;1.45;0.22;;;36.00;1.00;;;;;;6243918;23;20028;-83
2022/09/13 14:13:19;;;;;;;0.40;0.30;;;36.70;1.00;;;;;;6243899;23;20050;-83
2022/09/13 14:16:41;;;;;;;1.88;0.35;;;37.20;1.00;;;;;;6226051;23;20110;-86
2022/09/13 14:19:32;;;;;;;0.88;0.20;;;36.60;1.00;;;;;;6242975;23;20463;-82
2022/09/13 14:22:25;;;;;;;1.02;0.30;;;36.10;1.00;;;;;;6223281;23;20108;-84
2022/09/13 14:25:23;;;;;;;1.00;0.40;;;35.50;1.00;;;;;;6243000;23;20082;-81
2022/09/13 14:28:20;;;;;;;0.88;0.30;;;35.70;1.00;;;;;;6221964;23;20099;-82
2022/09/13 14:31:16;;;;;;;1.45;0.20;;;35.40;99.90;;;;;;6221834;23;20356;-81
2022/09/13 14:34:04;;;;;;;0.40;0.30;;;35.90;99.90;;;;;;6244844;23;20020;-81
2022/09/13 14:36:54;;;;;;;0.30;0.30;;;36.80;99.90;;;;;;6243968;23;20036;-85
2022/09/13 14:40:08;;;;;;;0.55;0.32;;;36.40;99.90;;;;;;6224289;23;20048;-81
2022/09/13 14:43:00;;;;;;;0.30;0.30;;;35.10;99.90;;;;;;6245931;22;20023;-83
2022/09/13 14:45:56;;;;;;;0.88;0.30;;;34.10;99.90;;;;;;6219531;23;20090;-82
2022/09/13 14:49:07;;;;;;;3.03;0.28;;;33.90;99.90;;;;;;6245229;23;20051;-81
2022/09/13 14:52:02;;;;;;;0.40;0.20;;;33.50;99.90;;;;;;6246145;23;20053;-82
2022/09/13 14:54:53;;;;;;;0.22;0.10;;;32.90;1.00;;;;;;6221223;23;20027;-82
2022/09/13 14:57:49;;;;;;;0.30;0.30;;;32.50;1.00;;;;;;6246093;23;20140;-82
2022/09/13 15:00:49;;;;;;;0.60;0.30;;;31.90;1.00;;;;;;6223459;23;20044;-82
2022/09/13 15:03:43;;;;;;;0.55;0.55;;;31.60;1.00;;;;;;6246756;23;20058;-82
2022/09/13 15:06:34;;;;;;;3.72;0.47;;;31.40;1.00;;;;;;6227226;22;20047;-82
2022/09/13 15:09:27;;;;;;;1.42;0.20;;;30.10;1.00;;;;;;6245075;23;20059;-82
2022/09/13 15:12:34;;;;;;;1.85;0.40;;;29.80;1.00;;;;;;6241731;23;20099;-82
2022/09/13 15:15:26;;;;;;;2.92;0.50;;;29.60;1.00;;;;;;6224561;23;20039;-82
2022/09/13 15:18:19;;;;;;;0.28;0.28;;;29.30;1.00;;;;;;6223363;23;20036;-82
2022/09/13 15:21:16;;;;;;;0.93;0.40;;;29.00;1.00;;;;;;6243730;23;20327;-82
2022/09/13 15:24:03;;;;;;;0.55;0.32;;;28.80;1.00;;;;;;6243725;23;20538;-82
2022/09/13 15:27:15;;;;;;;0.63;0.32;;;29.00;1.00;;;;;;6241195;23;20046;-82